Ayers Rock, Northern Territory

2:28 PM CST on August 29, 2014 (GMT +0930)
Ayers Rock (Connellan) | Change Station
CLOSE
Current Station
Airport
Location: Ayers Rock,
Elevation: 1627 ft
Nearby Weather Stations

Elev 1627 ft 25.19 °S, 130.98 °E | Updated 58 minutes ago

Clear
Clear
77 °F
Feels Like 77 °F
N
10
Wind Variable Wind from ENE

Today
High -- | Low -- °F
--% Chance of Precip.
Yesterday
High -- | Low -- °F
Precip. -- in
7:01 AM 6:33 PM
Waxing Crescent, 12% visible
Pressure 30.18 in
Visibility 6.2 miles
Clouds
Dew Point 28 °F
Humidity 17%
Rainfall 0.00 in
Snow Depth Not available.
UV Not available.
Pollen Not available.
Air Quality Not available.
Flu Activity Not available.
METAR YAYE 290400Z AUTO 07009KT 9999 // NCD 25/M02 Q1022

More Conditions Fewer Conditions

Pressure 30.18 in
Visibility 6.2 miles
Clouds
Dew Point 28 °F
Humidity 17%
Rainfall 0.00 in
Snow Depth Not available.
UV Not available.
Pollen Not available.
Air Quality Not available.
Flu Activity Not available.
METAR YAYE 290400Z AUTO 07009KT 9999 // NCD 25/M02 Q1022

More Conditions Fewer Conditions

10-Day Weather Forecast

Almanac

Astronomy

Aug. 29, 2014 Rise Set
Actual Time 7:01 AM CST 6:33 PM CST
Civil Twilight 6:38 AM CST 6:56 PM CST
Nautical Twilight 6:11 AM CST 7:22 PM CST
Astronomical Twilight 5:45 AM CST 7:49 PM CST
Moon 8:53 AM CST 9:41 PM CST
Length of Visible Light 12h 17m
Length of Day
11h 31m
Tomorrow will be 1m 22s longer.
Waxing Crescent, 12% of the Moon is Illuminated
Today
Waxing Crescent
Sep 2
First Quarter
Sep 8
Full
Sep 15
Last Quarter
Sep 24
New

Yesterday's Extremes

Country Highs Country Lows

Community

WunderPhotos

Upload Photos

1,748,186 photos uploaded!

Nearby

Snow Depth

Not available.

Earthquake Activity

City Distance Mag. Time & Date
No recent earthquake activity has been reported nearby.
Minimum magnitude displayed is 2.5.

Coastal Water Temperatures

Place Temperature
No Stations Reporting

Nearby Weather Stations